Jump to content

  •  

SOUTHWEST AIRLINES FLIGHT WN4777 FLOWN ON 11-19-2017 BY CAPTAIN TYLER HANUS

Pilot StatsCaptain Tyler Hanus (LDP525) • 262.7 total hours • 63 total flights [View Logbook]
FLIGHT DETAILS
StatusReceived and approved on 2017-11-19 at 15:11:20
Origin AirportRonald Reagan Washington Natl (KDCA) • Washington, Virginia, United States (15 feet MSL)
Filed Flight PlanFLIGHT PLANNER OFFLINE
Destination AirportNashville Intl (KBNA) • Nashville, Tennessee, United States (599 feet MSL)
Alternate AirportNone Filed
AirlineSouthwest Airlines
AircraftBoeing 737-800 | Winglets (73H / B737-800)
FS Aircraft UsedBoeing 737-7H4NG Southwest Airlines N708SW Goldstar Textures
Cruising AltitudeFL380
Distance Flown487 nautical miles
Passengers Onboard81 passengers (50.00% full)
DEPARTURE DETAILS
Time Out14:04:43
Taxi Data119,701 lbs total with 15,046 lbs of fuel onboard
Takeoff Data14:11:52 (7 minutes after leaving gate/ramp) • 119,389 lbs total • 4° pitch at 134 knots
Departure METARKDCA 191752Z 29014G26KT 10SM BKN050 11/M02 A2975 RMK AO2 PK WND 27031/1726 SLP075 T01061017 10122 20094 51017
ARRIVAL DETAILS
Landing Data14:36:55 • 111,118 lbs total • 2° pitch doing 120 knots at a rate of -176.09 feet/minute with 6,216 lbs of fuel onboard
Time In14:43:23 (6 minutes after landing)
Ramp Weight110,871 lbs total
Total Fuel Used8,830 lbs
Total Block Time01:38:42 (1.6 hours) while 14 minutes were spent on the ground
Arrival METARKBNA 191953Z 31009KT 10SM CLR 08/M08 A3014 RMK AO2 SLP205 T00831078
MISCELLANEOUS DETAILS
LiveDISPATCH Version4.8.3.1
FS Version
FSUIPC Version4.97
OS VersionWindows 7 32-bit
Screen Resolution1360 x 768
Pilot's CommentsNo Comments Reported
FLIGHT MAP